sensor_id;sensor_type;location;lat;lon;timestamp;pressure;altitude;pressure_sealevel;temperature;humidity
33859;BME280;20156;47.486;12.074;2023-03-04T00:02:16;94545.69;;;3.63;100.00
33859;BME280;20156;47.486;12.074;2023-03-04T00:04:42;94544.72;;;3.64;100.00
33859;BME280;20156;47.486;12.074;2023-03-04T00:07:07;94552.72;;;3.54;100.00
33859;BME280;20156;47.486;12.074;2023-03-04T00:09:33;94542.75;;;3.51;100.00
33859;BME280;20156;47.486;12.074;2023-03-04T00:11:58;94538.25;;;3.53;100.00
33859;BME280;20156;47.486;12.074;2023-03-04T00:14:24;94537.16;;;3.48;100.00
33859;BME280;20156;47.486;12.074;2023-03-04T00:16:49;94534.59;;;3.48;100.00
33859;BME280;20156;47.486;12.074;2023-03-04T00:19:15;94528.84;;;3.46;100.00
33859;BME280;20156;47.486;12.074;2023-03-04T00:21:40;94522.84;;;3.53;100.00
33859;BME280;20156;47.486;12.074;2023-03-04T00:24:06;94531.16;;;3.55;100.00
33859;BME280;20156;47.486;12.074;2023-03-04T00:26:31;94536.00;;;3.50;100.00
33859;BME280;20156;47.486;12.074;2023-03-04T00:28:57;94529.28;;;3.49;100.00
33859;BME280;20156;47.486;12.074;2023-03-04T00:31:22;94522.97;;;3.52;100.00
33859;BME280;20156;47.486;12.074;2023-03-04T00:33:48;94528.13;;;3.52;100.00
33859;BME280;20156;47.486;12.074;2023-03-04T00:36:13;94532.66;;;3.50;100.00
33859;BME280;20156;47.486;12.074;2023-03-04T00:38:39;94539.56;;;3.49;100.00
33859;BME280;20156;47.486;12.074;2023-03-04T00:41:04;94542.69;;;3.59;100.00
33859;BME280;20156;47.486;12.074;2023-03-04T00:43:30;94550.03;;;3.62;100.00
33859;BME280;20156;47.486;12.074;2023-03-04T00:45:56;94556.69;;;3.57;100.00
33859;BME280;20156;47.486;12.074;2023-03-04T00:48:22;94566.97;;;3.57;100.00
33859;BME280;20156;47.486;12.074;2023-03-04T00:50:47;94560.84;;;3.58;100.00
33859;BME280;20156;47.486;12.074;2023-03-04T00:53:13;94571.50;;;3.55;100.00
33859;BME280;20156;47.486;12.074;2023-03-04T00:55:39;94566.81;;;3.58;100.00
33859;BME280;20156;47.486;12.074;2023-03-04T00:58:04;94568.94;;;3.55;100.00
33859;BME280;20156;47.486;12.074;2023-03-04T01:00:30;94558.09;;;3.59;100.00
33859;BME280;20156;47.486;12.074;2023-03-04T01:02:55;94553.16;;;3.58;100.00
33859;BME280;20156;47.486;12.074;2023-03-04T01:05:21;94572.31;;;3.55;100.00
33859;BME280;20156;47.486;12.074;2023-03-04T01:07:47;94571.94;;;3.58;100.00
33859;BME280;20156;47.486;12.074;2023-03-04T01:10:14;94582.41;;;3.57;100.00
33859;BME280;20156;47.486;12.074;2023-03-04T01:12:40;94581.25;;;3.59;100.00
33859;BME280;20156;47.486;12.074;2023-03-04T01:15:07;94584.00;;;3.58;100.00
33859;BME280;20156;47.486;12.074;2023-03-04T01:17:33;94583.03;;;3.59;100.00
33859;BME280;20156;47.486;12.074;2023-03-04T01:19:58;94574.56;;;3.50;100.00
33859;BME280;20156;47.486;12.074;2023-03-04T01:22:24;94560.13;;;3.49;100.00
33859;BME280;20156;47.486;12.074;2023-03-04T01:24:49;94562.34;;;3.52;100.00
33859;BME280;20156;47.486;12.074;2023-03-04T01:27:14;94553.03;;;3.51;100.00
33859;BME280;20156;47.486;12.074;2023-03-04T01:29:40;94556.41;;;3.52;100.00
33859;BME280;20156;47.486;12.074;2023-03-04T01:32:05;94546.31;;;3.50;100.00
33859;BME280;20156;47.486;12.074;2023-03-04T01:34:31;94556.56;;;3.50;100.00
33859;BME280;20156;47.486;12.074;2023-03-04T01:36:56;94548.69;;;3.52;100.00
33859;BME280;20156;47.486;12.074;2023-03-04T01:39:22;94542.66;;;3.45;100.00
33859;BME280;20156;47.486;12.074;2023-03-04T01:41:47;94531.22;;;3.47;100.00
33859;BME280;20156;47.486;12.074;2023-03-04T01:44:13;94527.69;;;3.48;100.00
33859;BME280;20156;47.486;12.074;2023-03-04T01:46:41;94509.06;;;3.46;100.00
33859;BME280;20156;47.486;12.074;2023-03-04T01:49:09;94502.78;;;3.49;100.00
33859;BME280;20156;47.486;12.074;2023-03-04T01:51:37;94494.44;;;3.47;100.00
33859;BME280;20156;47.486;12.074;2023-03-04T01:54:02;94487.53;;;3.47;100.00
33859;BME280;20156;47.486;12.074;2023-03-04T01:56:34;94480.44;;;3.49;100.00
33859;BME280;20156;47.486;12.074;2023-03-04T01:59:16;94484.34;;;3.45;100.00
33859;BME280;20156;47.486;12.074;2023-03-04T02:01:45;94478.41;;;3.45;100.00
33859;BME280;20156;47.486;12.074;2023-03-04T02:04:11;94485.13;;;3.46;100.00
33859;BME280;20156;47.486;12.074;2023-03-04T02:06:38;94483.19;;;3.48;100.00
33859;BME280;20156;47.486;12.074;2023-03-04T02:09:05;94488.69;;;3.45;100.00
33859;BME280;20156;47.486;12.074;2023-03-04T02:11:31;94478.78;;;3.42;100.00
33859;BME280;20156;47.486;12.074;2023-03-04T02:13:58;94480.78;;;3.31;100.00
33859;BME280;20156;47.486;12.074;2023-03-04T02:16:24;94470.88;;;3.28;100.00
33859;BME280;20156;47.486;12.074;2023-03-04T02:18:49;94448.34;;;3.30;100.00
33859;BME280;20156;47.486;12.074;2023-03-04T02:26:17;94412.63;;;3.36;100.00
33859;BME280;20156;47.486;12.074;2023-03-04T02:28:43;94402.34;;;3.36;100.00
33859;BME280;20156;47.486;12.074;2023-03-04T02:33:50;94394.75;;;3.27;100.00
33859;BME280;20156;47.486;12.074;2023-03-04T02:36:16;94380.75;;;3.30;100.00
33859;BME280;20156;47.486;12.074;2023-03-04T02:38:42;94368.34;;;3.33;100.00
33859;BME280;20156;47.486;12.074;2023-03-04T02:41:11;94363.38;;;3.32;100.00
33859;BME280;20156;47.486;12.074;2023-03-04T02:43:38;94354.34;;;3.36;100.00
33859;BME280;20156;47.486;12.074;2023-03-04T02:46:03;94360.91;;;3.39;100.00
33859;BME280;20156;47.486;12.074;2023-03-04T02:48:30;94362.06;;;3.36;100.00
33859;BME280;20156;47.486;12.074;2023-03-04T02:50:55;94368.09;;;3.28;100.00
33859;BME280;20156;47.486;12.074;2023-03-04T02:53:21;94363.84;;;3.21;100.00
33859;BME280;20156;47.486;12.074;2023-03-04T02:55:47;94351.97;;;3.20;100.00
33859;BME280;20156;47.486;12.074;2023-03-04T02:58:13;94339.22;;;3.26;100.00
33859;BME280;20156;47.486;12.074;2023-03-04T03:00:39;94321.47;;;3.31;100.00
33859;BME280;20156;47.486;12.074;2023-03-04T03:03:05;94320.13;;;3.36;100.00
33859;BME280;20156;47.486;12.074;2023-03-04T03:05:32;94327.03;;;3.35;100.00
33859;BME280;20156;47.486;12.074;2023-03-04T03:07:58;94318.91;;;3.31;100.00
33859;BME280;20156;47.486;12.074;2023-03-04T03:10:24;94321.47;;;3.31;100.00
33859;BME280;20156;47.486;12.074;2023-03-04T03:12:50;94314.19;;;3.35;100.00
33859;BME280;20156;47.486;12.074;2023-03-04T03:15:16;94318.91;;;3.31;100.00
33859;BME280;20156;47.486;12.074;2023-03-04T03:17:41;94324.31;;;3.37;100.00
33859;BME280;20156;47.486;12.074;2023-03-04T03:20:08;94328.66;;;3.36;100.00
33859;BME280;20156;47.486;12.074;2023-03-04T03:22:34;94326.09;;;3.36;100.00
33859;BME280;20156;47.486;12.074;2023-03-04T03:24:59;94339.22;;;3.26;100.00
33859;BME280;20156;47.486;12.074;2023-03-04T03:27:25;94337.00;;;3.23;100.00
33859;BME280;20156;47.486;12.074;2023-03-04T03:29:50;94337.97;;;3.22;100.00
33859;BME280;20156;47.486;12.074;2023-03-04T03:32:16;94338.34;;;3.19;100.00
33859;BME280;20156;47.486;12.074;2023-03-04T03:34:41;94341.25;;;3.16;100.00
33859;BME280;20156;47.486;12.074;2023-03-04T03:37:06;94339.41;;;3.10;100.00
33859;BME280;20156;47.486;12.074;2023-03-04T03:39:32;94342.69;;;3.04;100.00
33859;BME280;20156;47.486;12.074;2023-03-04T03:41:57;94344.91;;;2.92;100.00
33859;BME280;20156;47.486;12.074;2023-03-04T03:44:23;94342.41;;;2.84;100.00
33859;BME280;20156;47.486;12.074;2023-03-04T03:46:48;94326.50;;;2.89;100.00
33859;BME280;20156;47.486;12.074;2023-03-04T03:49:13;94306.56;;;2.91;100.00
33859;BME280;20156;47.486;12.074;2023-03-04T03:51:41;94307.38;;;2.91;100.00
33859;BME280;20156;47.486;12.074;2023-03-04T03:54:07;94306.75;;;2.89;100.00
33859;BME280;20156;47.486;12.074;2023-03-04T03:56:32;94294.72;;;2.90;100.00
33859;BME280;20156;47.486;12.074;2023-03-04T03:58:57;94289.47;;;2.83;100.00
33859;BME280;20156;47.486;12.074;2023-03-04T04:01:24;94287.00;;;2.75;100.00
33859;BME280;20156;47.486;12.074;2023-03-04T04:03:49;94279.69;;;2.72;100.00
33859;BME280;20156;47.486;12.074;2023-03-04T04:06:15;94271.00;;;2.58;100.00
33859;BME280;20156;47.486;12.074;2023-03-04T04:08:40;94273.22;;;2.47;100.00
33859;BME280;20156;47.486;12.074;2023-03-04T04:11:11;94285.59;;;2.28;100.00
33859;BME280;20156;47.486;12.074;2023-03-04T04:13:36;94284.53;;;2.23;100.00
33859;BME280;20156;47.486;12.074;2023-03-04T04:16:02;94271.00;;;2.29;100.00
33859;BME280;20156;47.486;12.074;2023-03-04T04:18:27;94251.00;;;2.39;100.00
33859;BME280;20156;47.486;12.074;2023-03-04T04:20:53;94248.00;;;2.35;100.00
33859;BME280;20156;47.486;12.074;2023-03-04T04:23:18;94243.66;;;2.36;100.00
33859;BME280;20156;47.486;12.074;2023-03-04T04:25:44;94256.50;;;2.21;100.00
33859;BME280;20156;47.486;12.074;2023-03-04T04:28:09;94267.13;;;1.95;100.00
33859;BME280;20156;47.486;12.074;2023-03-04T04:30:35;94274.75;;;1.89;100.00
33859;BME280;20156;47.486;12.074;2023-03-04T04:33:00;94258.47;;;1.96;100.00
33859;BME280;20156;47.486;12.074;2023-03-04T04:35:29;94262.59;;;1.83;100.00
33859;BME280;20156;47.486;12.074;2023-03-04T04:37:55;94267.28;;;1.79;100.00
33859;BME280;20156;47.486;12.074;2023-03-04T04:40:21;94282.78;;;1.63;100.00
33859;BME280;20156;47.486;12.074;2023-03-04T04:42:46;94286.66;;;1.59;100.00
33859;BME280;20156;47.486;12.074;2023-03-04T04:45:12;94279.25;;;1.64;100.00
33859;BME280;20156;47.486;12.074;2023-03-04T04:47:37;94277.47;;;1.64;100.00
33859;BME280;20156;47.486;12.074;2023-03-04T04:50:03;94280.28;;;1.55;100.00
33859;BME280;20156;47.486;12.074;2023-03-04T04:52:29;94283.41;;;1.42;100.00
33859;BME280;20156;47.486;12.074;2023-03-04T04:54:54;94294.22;;;1.29;100.00
33859;BME280;20156;47.486;12.074;2023-03-04T04:57:19;94281.38;;;1.37;100.00
33859;BME280;20156;47.486;12.074;2023-03-04T04:59:45;94268.84;;;1.42;100.00
33859;BME280;20156;47.486;12.074;2023-03-04T05:02:10;94257.69;;;1.58;100.00
33859;BME280;20156;47.486;12.074;2023-03-04T05:04:36;94238.78;;;1.59;100.00
33859;BME280;20156;47.486;12.074;2023-03-04T05:07:01;94228.16;;;1.62;100.00
33859;BME280;20156;47.486;12.074;2023-03-04T05:09:26;94239.88;;;1.42;100.00
33859;BME280;20156;47.486;12.074;2023-03-04T05:11:52;94242.31;;;1.35;100.00
33859;BME280;20156;47.486;12.074;2023-03-04T05:14:17;94239.91;;;1.34;100.00
33859;BME280;20156;47.486;12.074;2023-03-04T05:16:43;94219.72;;;1.39;100.00
33859;BME280;20156;47.486;12.074;2023-03-04T05:19:08;94207.72;;;1.39;100.00
33859;BME280;20156;47.486;12.074;2023-03-04T05:21:34;94204.06;;;1.34;100.00
33859;BME280;20156;47.486;12.074;2023-03-04T05:23:59;94197.16;;;1.34;100.00
33859;BME280;20156;47.486;12.074;2023-03-04T05:26:25;94189.94;;;1.38;100.00
33859;BME280;20156;47.486;12.074;2023-03-04T05:28:50;94175.72;;;1.35;100.00
33859;BME280;20156;47.486;12.074;2023-03-04T05:31:15;94159.38;;;1.36;100.00
33859;BME280;20156;47.486;12.074;2023-03-04T05:33:42;94157.16;;;1.33;100.00
33859;BME280;20156;47.486;12.074;2023-03-04T05:36:08;94146.75;;;1.35;100.00
33859;BME280;20156;47.486;12.074;2023-03-04T05:38:34;94143.09;;;1.29;100.00
33859;BME280;20156;47.486;12.074;2023-03-04T05:41:03;94161.22;;;1.05;100.00
33859;BME280;20156;47.486;12.074;2023-03-04T05:43:29;94182.78;;;0.87;100.00
33859;BME280;20156;47.486;12.074;2023-03-04T05:45:55;94188.41;;;0.83;100.00
33859;BME280;20156;47.486;12.074;2023-03-04T05:48:21;94186.53;;;0.77;100.00
33859;BME280;20156;47.486;12.074;2023-03-04T05:50:52;94166.75;;;0.94;100.00
33859;BME280;20156;47.486;12.074;2023-03-04T05:53:18;94139.78;;;1.06;100.00
33859;BME280;20156;47.486;12.074;2023-03-04T05:55:45;94127.69;;;1.14;100.00
33859;BME280;20156;47.486;12.074;2023-03-04T05:58:11;94133.16;;;1.11;100.00
33859;BME280;20156;47.486;12.074;2023-03-04T06:00:37;94133.13;;;0.97;100.00
33859;BME280;20156;47.486;12.074;2023-03-04T06:03:02;94154.00;;;0.85;100.00
33859;BME280;20156;47.486;12.074;2023-03-04T06:05:28;94204.22;;;0.55;100.00
33859;BME280;20156;47.486;12.074;2023-03-04T06:07:53;94202.41;;;0.64;100.00
33859;BME280;20156;47.486;12.074;2023-03-04T06:10:19;94205.41;;;0.76;100.00
33859;BME280;20156;47.486;12.074;2023-03-04T06:12:44;94207.88;;;0.92;100.00
33859;BME280;20156;47.486;12.074;2023-03-04T06:15:10;94223.84;;;0.94;100.00
33859;BME280;20156;47.486;12.074;2023-03-04T06:17:37;94233.56;;;0.99;100.00
33859;BME280;20156;47.486;12.074;2023-03-04T06:20:04;94230.00;;;1.08;100.00
33859;BME280;20156;47.486;12.074;2023-03-04T06:22:31;94223.22;;;1.15;100.00
33859;BME280;20156;47.486;12.074;2023-03-04T06:24:57;94213.06;;;1.30;100.00
33859;BME280;20156;47.486;12.074;2023-03-04T06:27:22;94207.41;;;1.34;100.00
33859;BME280;20156;47.486;12.074;2023-03-04T06:29:47;94195.00;;;1.46;100.00
33859;BME280;20156;47.486;12.074;2023-03-04T06:32:13;94185.75;;;1.60;100.00
33859;BME280;20156;47.486;12.074;2023-03-04T06:34:38;94180.22;;;1.71;100.00
33859;BME280;20156;47.486;12.074;2023-03-04T06:37:04;94171.47;;;1.80;100.00
33859;BME280;20156;47.486;12.074;2023-03-04T06:39:29;94176.69;;;1.87;100.00
33859;BME280;20156;47.486;12.074;2023-03-04T06:41:54;94187.84;;;1.94;100.00
33859;BME280;20156;47.486;12.074;2023-03-04T06:44:20;94200.13;;;1.98;100.00
33859;BME280;20156;47.486;12.074;2023-03-04T06:46:45;94210.31;;;2.06;100.00
33859;BME280;20156;47.486;12.074;2023-03-04T06:49:11;94220.66;;;2.13;100.00
33859;BME280;20156;47.486;12.074;2023-03-04T06:51:36;94247.00;;;2.07;100.00
33859;BME280;20156;47.486;12.074;2023-03-04T06:54:02;94279.59;;;1.98;100.00
33859;BME280;20156;47.486;12.074;2023-03-04T06:56:27;94286.16;;;2.01;100.00
33859;BME280;20156;47.486;12.074;2023-03-04T06:58:53;94286.34;;;2.14;100.00
33859;BME280;20156;47.486;12.074;2023-03-04T07:01:26;94295.94;;;2.20;100.00
33859;BME280;20156;47.486;12.074;2023-03-04T07:03:52;94310.88;;;2.31;100.00
33859;BME280;20156;47.486;12.074;2023-03-04T07:06:21;94336.81;;;2.22;100.00
33859;BME280;20156;47.486;12.074;2023-03-04T07:08:47;94353.59;;;2.24;100.00
33859;BME280;20156;47.486;12.074;2023-03-04T07:11:13;94372.25;;;2.18;100.00
33859;BME280;20156;47.486;12.074;2023-03-04T07:13:39;94369.06;;;2.16;100.00
33859;BME280;20156;47.486;12.074;2023-03-04T07:16:10;94373.28;;;2.09;100.00
33859;BME280;20156;47.486;12.074;2023-03-04T07:18:37;94361.84;;;2.20;100.00
33859;BME280;20156;47.486;12.074;2023-03-04T07:21:03;94356.63;;;2.28;100.00
33859;BME280;20156;47.486;12.074;2023-03-04T07:23:29;94361.84;;;2.34;100.00
33859;BME280;20156;47.486;12.074;2023-03-04T07:25:55;94359.47;;;2.48;100.00
33859;BME280;20156;47.486;12.074;2023-03-04T07:28:20;94384.88;;;2.42;100.00
33859;BME280;20156;47.486;12.074;2023-03-04T07:30:46;94380.44;;;2.51;100.00
33859;BME280;20156;47.486;12.074;2023-03-04T07:33:12;94376.50;;;2.63;100.00
33859;BME280;20156;47.486;12.074;2023-03-04T07:35:38;94378.03;;;2.72;100.00
33859;BME280;20156;47.486;12.074;2023-03-04T07:38:03;94379.34;;;2.83;100.00
33859;BME280;20156;47.486;12.074;2023-03-04T07:40:29;94381.47;;;2.94;100.00
33859;BME280;20156;47.486;12.074;2023-03-04T07:42:55;94400.19;;;3.03;100.00
33859;BME280;20156;47.486;12.074;2023-03-04T07:45:22;94409.63;;;3.17;100.00
33859;BME280;20156;47.486;12.074;2023-03-04T07:47:47;94430.66;;;3.21;100.00
33859;BME280;20156;47.486;12.074;2023-03-04T07:50:14;94463.16;;;3.14;100.00
33859;BME280;20156;47.486;12.074;2023-03-04T07:52:41;94482.66;;;3.08;100.00
33859;BME280;20156;47.486;12.074;2023-03-04T07:55:09;94497.25;;;3.08;100.00
33859;BME280;20156;47.486;12.074;2023-03-04T07:57:34;94508.06;;;3.03;100.00
33859;BME280;20156;47.486;12.074;2023-03-04T08:00:02;94522.34;;;3.06;100.00
33859;BME280;20156;47.486;12.074;2023-03-04T08:02:28;94518.84;;;2.98;100.00
33859;BME280;20156;47.486;12.074;2023-03-04T08:04:53;94530.72;;;2.99;100.00
33859;BME280;20156;47.486;12.074;2023-03-04T08:07:18;94516.75;;;3.17;100.00
33859;BME280;20156;47.486;12.074;2023-03-04T08:09:44;94511.00;;;3.29;100.00
33859;BME280;20156;47.486;12.074;2023-03-04T08:12:10;94521.13;;;3.31;100.00
33859;BME280;20156;47.486;12.074;2023-03-04T08:14:35;94528.66;;;3.32;100.00
33859;BME280;20156;47.486;12.074;2023-03-04T08:17:01;94536.34;;;3.32;100.00
33859;BME280;20156;47.486;12.074;2023-03-04T08:19:26;94530.41;;;3.32;100.00
33859;BME280;20156;47.486;12.074;2023-03-04T08:21:52;94532.38;;;3.45;100.00
33859;BME280;20156;47.486;12.074;2023-03-04T08:24:17;94533.44;;;3.50;100.00
33859;BME280;20156;47.486;12.074;2023-03-04T08:26:46;94531.06;;;3.63;100.00
33859;BME280;20156;47.486;12.074;2023-03-04T08:29:15;94532.81;;;3.92;100.00
33859;BME280;20156;47.486;12.074;2023-03-04T08:31:41;94548.56;;;4.19;100.00
33859;BME280;20156;47.486;12.074;2023-03-04T08:34:08;94582.72;;;4.42;100.00
33859;BME280;20156;47.486;12.074;2023-03-04T08:36:35;94649.41;;;4.37;100.00
33859;BME280;20156;47.486;12.074;2023-03-04T08:39:01;94686.13;;;4.46;100.00
33859;BME280;20156;47.486;12.074;2023-03-04T08:41:26;94721.56;;;4.59;100.00
33859;BME280;20156;47.486;12.074;2023-03-04T08:43:53;94753.59;;;5.00;100.00
33859;BME280;20156;47.486;12.074;2023-03-04T08:46:20;94805.47;;;5.27;100.00
33859;BME280;20156;47.486;12.074;2023-03-04T08:48:49;94882.63;;;5.43;100.00
33859;BME280;20156;47.486;12.074;2023-03-04T08:51:15;94943.63;;;5.36;100.00
33859;BME280;20156;47.486;12.074;2023-03-04T08:53:41;95002.69;;;5.60;100.00
33859;BME280;20156;47.486;12.074;2023-03-04T08:56:07;95071.28;;;5.69;100.00
33859;BME280;20156;47.486;12.074;2023-03-04T08:58:33;95122.03;;;5.77;100.00
33859;BME280;20156;47.486;12.074;2023-03-04T09:01:00;95177.78;;;5.63;100.00
33859;BME280;20156;47.486;12.074;2023-03-04T09:03:26;95213.25;;;5.92;100.00
33859;BME280;20156;47.486;12.074;2023-03-04T09:05:52;95249.53;;;6.14;100.00
33859;BME280;20156;47.486;12.074;2023-03-04T09:08:17;95306.72;;;6.02;100.00
33859;BME280;20156;47.486;12.074;2023-03-04T09:10:44;95326.56;;;6.48;100.00
33859;BME280;20156;47.486;12.074;2023-03-04T09:13:10;95352.59;;;6.61;100.00
33859;BME280;20156;47.486;12.074;2023-03-04T09:15:37;95373.03;;;6.71;100.00
33859;BME280;20156;47.486;12.074;2023-03-04T09:18:04;95384.28;;;6.78;100.00
33859;BME280;20156;47.486;12.074;2023-03-04T09:20:30;95386.06;;;6.77;100.00
33859;BME280;20156;47.486;12.074;2023-03-04T09:22:56;95390.78;;;6.88;100.00
33859;BME280;20156;47.486;12.074;2023-03-04T09:25:22;95397.66;;;6.81;100.00
33859;BME280;20156;47.486;12.074;2023-03-04T09:27:47;95405.41;;;6.44;100.00
33859;BME280;20156;47.486;12.074;2023-03-04T09:30:13;95405.41;;;6.81;100.00
33859;BME280;20156;47.486;12.074;2023-03-04T09:32:38;95416.66;;;7.41;100.00
33859;BME280;20156;47.486;12.074;2023-03-04T09:35:06;95461.47;;;7.56;100.00
33859;BME280;20156;47.486;12.074;2023-03-04T09:37:32;95479.94;;;7.97;100.00
33859;BME280;20156;47.486;12.074;2023-03-04T09:39:58;95495.88;;;8.15;100.00
33859;BME280;20156;47.486;12.074;2023-03-04T09:42:48;95535.41;;;7.73;100.00
33859;BME280;20156;47.486;12.074;2023-03-04T09:45:20;95538.66;;;7.15;100.00
33859;BME280;20156;47.486;12.074;2023-03-04T09:47:50;95522.28;;;7.37;100.00
33859;BME280;20156;47.486;12.074;2023-03-04T09:50:17;95532.53;;;7.83;100.00
33859;BME280;20156;47.486;12.074;2023-03-04T09:55:34;95560.13;;;8.20;100.00
33859;BME280;20156;47.486;12.074;2023-03-04T10:01:10;95590.59;;;8.33;100.00
33859;BME280;20156;47.486;12.074;2023-03-04T10:03:50;95601.81;;;8.84;100.00
33859;BME280;20156;47.486;12.074;2023-03-04T10:06:19;95608.06;;;9.26;100.00
33859;BME280;20156;47.486;12.074;2023-03-04T10:08:57;95622.41;;;8.71;100.00
33859;BME280;20156;47.486;12.074;2023-03-04T10:11:31;95630.19;;;8.56;100.00
33859;BME280;20156;47.486;12.074;2023-03-04T10:14:03;95623.75;;;9.18;100.00
33859;BME280;20156;47.486;12.074;2023-03-04T10:16:41;95626.97;;;9.20;100.00
33859;BME280;20156;47.486;12.074;2023-03-04T10:19:47;95628.69;;;9.13;100.00
33859;BME280;20156;47.486;12.074;2023-03-04T10:24:44;95628.47;;;9.50;100.00
33859;BME280;20156;47.486;12.074;2023-03-04T10:27:13;95629.22;;;9.44;100.00
33859;BME280;20156;47.486;12.074;2023-03-04T10:29:39;95625.44;;;9.25;100.00
33859;BME280;20156;47.486;12.074;2023-03-04T10:32:05;95633.97;;;9.41;100.00
33859;BME280;20156;47.486;12.074;2023-03-04T10:34:33;95625.41;;;9.68;100.00
33859;BME280;20156;47.486;12.074;2023-03-04T10:37:01;95633.34;;;9.60;100.00
33859;BME280;20156;47.486;12.074;2023-03-04T10:39:30;95628.88;;;9.54;100.00
33859;BME280;20156;47.486;12.074;2023-03-04T10:42:02;95624.06;;;9.51;100.00
33859;BME280;20156;47.486;12.074;2023-03-04T10:44:29;95619.72;;;9.79;100.00
33859;BME280;20156;47.486;12.074;2023-03-04T10:46:57;95622.38;;;10.14;100.00
33859;BME280;20156;47.486;12.074;2023-03-04T10:49:24;95616.53;;;10.33;100.00
33859;BME280;20156;47.486;12.074;2023-03-04T10:52:18;95615.69;;;10.61;100.00
33859;BME280;20156;47.486;12.074;2023-03-04T10:54:49;95613.22;;;11.00;100.00
33859;BME280;20156;47.486;12.074;2023-03-04T10:57:37;95607.78;;;10.89;100.00
33859;BME280;20156;47.486;12.074;2023-03-04T11:00:27;95584.22;;;11.23;100.00
33859;BME280;20156;47.486;12.074;2023-03-04T11:03:21;95593.16;;;11.82;100.00
33859;BME280;20156;47.486;12.074;2023-03-04T11:05:48;95564.03;;;11.78;100.00
33859;BME280;20156;47.486;12.074;2023-03-04T11:08:18;95554.84;;;11.62;100.00
33859;BME280;20156;47.486;12.074;2023-03-04T11:10:44;95563.63;;;11.48;100.00
33859;BME280;20156;47.486;12.074;2023-03-04T11:15:56;95557.44;;;11.89;100.00
33859;BME280;20156;47.486;12.074;2023-03-04T11:18:47;95562.84;;;11.87;100.00
33859;BME280;20156;47.486;12.074;2023-03-04T11:21:31;95543.97;;;11.19;100.00
33859;BME280;20156;47.486;12.074;2023-03-04T11:24:13;95574.09;;;10.74;100.00
33859;BME280;20156;47.486;12.074;2023-03-04T11:26:45;95572.28;;;10.74;100.00
33859;BME280;20156;47.486;12.074;2023-03-04T11:29:24;95564.31;;;10.35;100.00
33859;BME280;20156;47.486;12.074;2023-03-04T11:34:36;95571.81;;;10.51;100.00
33859;BME280;20156;47.486;12.074;2023-03-04T11:37:11;95569.16;;;10.10;100.00
33859;BME280;20156;47.486;12.074;2023-03-04T11:40:03;95571.53;;;10.87;100.00
33859;BME280;20156;47.486;12.074;2023-03-04T11:45:16;95567.19;;;9.84;100.00
33859;BME280;20156;47.486;12.074;2023-03-04T11:48:07;95565.50;;;10.26;100.00
33859;BME280;20156;47.486;12.074;2023-03-04T11:50:52;95570.22;;;9.87;100.00
33859;BME280;20156;47.486;12.074;2023-03-04T11:56:30;95555.22;;;9.89;100.00
33859;BME280;20156;47.486;12.074;2023-03-04T12:04:59;95531.69;;;9.91;100.00
33859;BME280;20156;47.486;12.074;2023-03-04T12:10:29;95535.50;;;10.30;100.00
33859;BME280;20156;47.486;12.074;2023-03-04T12:16:14;95515.13;;;10.33;100.00
33859;BME280;20156;47.486;12.074;2023-03-04T12:18:53;95528.00;;;10.13;100.00
33859;BME280;20156;47.486;12.074;2023-03-04T12:30:02;95486.06;;;11.04;100.00
33859;BME280;20156;47.486;12.074;2023-03-04T12:35:41;95471.47;;;11.36;100.00
33859;BME280;20156;47.486;12.074;2023-03-04T12:38:28;95470.03;;;11.40;100.00
33859;BME280;20156;47.486;12.074;2023-03-04T12:43:41;95478.81;;;10.66;100.00
33859;BME280;20156;47.486;12.074;2023-03-04T12:46:29;95473.81;;;10.65;100.00
33859;BME280;20156;47.486;12.074;2023-03-04T12:54:31;95510.59;;;10.14;100.00
33859;BME280;20156;47.486;12.074;2023-03-04T12:57:20;95499.13;;;10.02;100.00
33859;BME280;20156;47.486;12.074;2023-03-04T13:03:02;95499.50;;;10.27;100.00
33859;BME280;20156;47.486;12.074;2023-03-04T13:05:55;95499.16;;;10.43;100.00
33859;BME280;20156;47.486;12.074;2023-03-04T13:17:01;95476.00;;;10.61;100.00
33859;BME280;20156;47.486;12.074;2023-03-04T13:25:33;95492.13;;;10.37;100.00
33859;BME280;20156;47.486;12.074;2023-03-04T13:41:10;95460.97;;;10.57;100.00
33859;BME280;20156;47.486;12.074;2023-03-04T13:46:41;95446.38;;;10.69;100.00
33859;BME280;20156;47.486;12.074;2023-03-04T13:49:16;95442.16;;;10.54;100.00
33859;BME280;20156;47.486;12.074;2023-03-04T13:51:44;95443.22;;;10.80;100.00
33859;BME280;20156;47.486;12.074;2023-03-04T13:56:45;95446.25;;;10.22;100.00
33859;BME280;20156;47.486;12.074;2023-03-04T14:04:25;95446.91;;;10.24;100.00
33859;BME280;20156;47.486;12.074;2023-03-04T14:06:52;95438.81;;;10.19;100.00
33859;BME280;20156;47.486;12.074;2023-03-04T14:09:23;95441.75;;;10.44;100.00
33859;BME280;20156;47.486;12.074;2023-03-04T14:11:52;95437.16;;;10.05;100.00
33859;BME280;20156;47.486;12.074;2023-03-04T14:14:42;95442.75;;;10.02;100.00
33859;BME280;20156;47.486;12.074;2023-03-04T14:17:20;95426.75;;;9.92;100.00
33859;BME280;20156;47.486;12.074;2023-03-04T14:19:47;95454.38;;;10.06;100.00
33859;BME280;20156;47.486;12.074;2023-03-04T14:22:26;95447.19;;;9.67;100.00
33859;BME280;20156;47.486;12.074;2023-03-04T14:27:29;95447.16;;;9.60;100.00
33859;BME280;20156;47.486;12.074;2023-03-04T14:29:59;95450.47;;;9.82;100.00
33859;BME280;20156;47.486;12.074;2023-03-04T14:32:26;95443.41;;;10.11;100.00
33859;BME280;20156;47.486;12.074;2023-03-04T14:35:19;95442.69;;;9.82;100.00
33859;BME280;20156;47.486;12.074;2023-03-04T14:37:50;95440.06;;;9.82;100.00